createdAt,value
2023-01-29T04:02:28.187Z,4.25
2023-01-29T04:05:06.376Z,4.50
2023-01-29T04:07:41.356Z,3.92
2023-01-29T04:10:17.541Z,4.50
2023-01-29T04:12:56.873Z,4.57
2023-01-29T04:15:26.495Z,4.15
2023-01-29T04:17:56.138Z,4.05
2023-01-29T04:20:47.162Z,4.20
2023-01-29T04:23:23.189Z,4.22
2023-01-29T04:26:21.917Z,3.83
2023-01-29T04:29:05.525Z,3.97
2023-01-29T04:31:42.190Z,4.03
2023-01-29T04:34:23.909Z,3.70
2023-01-29T04:37:10.590Z,3.72
2023-01-29T04:39:53.178Z,3.97
2023-01-29T04:42:25.431Z,3.70
2023-01-29T04:45:16.612Z,3.53
2023-01-29T04:47:50.440Z,3.70
2023-01-29T04:50:21.136Z,3.47
2023-01-29T04:53:07.790Z,4.22
2023-01-29T04:55:45.040Z,3.67
2023-01-29T04:58:14.793Z,3.80
2023-01-29T05:00:44.526Z,3.72
2023-01-29T05:03:14.336Z,3.50
2023-01-29T05:05:45.451Z,3.45
2023-01-29T05:08:17.547Z,3.27
2023-01-29T05:13:14.907Z,3.22
2023-01-29T05:15:47.505Z,2.90
2023-01-29T05:18:15.800Z,2.90
2023-01-29T05:20:45.224Z,2.80
2023-01-29T05:23:17.900Z,2.90
2023-01-29T05:25:47.076Z,2.90
2023-01-29T05:28:17.833Z,3.00
2023-01-29T05:30:47.634Z,2.92
2023-01-29T05:33:19.965Z,2.85
2023-01-29T05:35:48.881Z,2.55
2023-01-29T05:38:17.865Z,2.50
2023-01-29T05:40:46.290Z,2.55
2023-01-29T05:43:22.451Z,2.80
2023-01-29T05:45:58.047Z,2.60
2023-01-29T05:48:27.801Z,2.63
2023-01-29T05:51:00.741Z,2.45
2023-01-29T05:53:32.301Z,2.55
2023-01-29T05:56:04.515Z,2.30
2023-01-29T05:58:33.237Z,2.58
2023-01-29T06:01:14.644Z,2.35
2023-01-29T06:03:42.679Z,2.03
2023-01-29T06:06:10.438Z,2.40
2023-01-29T06:08:38.325Z,2.60
2023-01-29T06:11:08.695Z,2.25
2023-01-29T06:13:36.607Z,2.20
2023-01-29T06:16:08.875Z,2.25
2023-01-29T06:18:37.622Z,2.60
2023-01-29T06:21:07.075Z,2.10
2023-01-29T06:23:34.767Z,2.00
2023-01-29T06:26:12.177Z,2.20
2023-01-29T06:28:40.387Z,2.15
2023-01-29T06:31:27.170Z,2.20
2023-01-29T06:33:57.397Z,2.08
2023-01-29T06:36:25.156Z,2.00
2023-01-29T06:38:53.004Z,2.05
2023-01-29T06:41:25.456Z,2.13
2023-01-29T06:43:53.391Z,2.15
2023-01-29T06:46:21.700Z,2.28
2023-01-29T06:48:49.445Z,1.90
2023-01-29T06:51:21.423Z,2.40
2023-01-29T06:53:49.849Z,2.10
2023-01-29T06:56:17.592Z,1.90
2023-01-29T06:58:45.451Z,2.25
2023-01-29T07:01:29.069Z,2.03
2023-01-29T07:04:01.404Z,2.05
2023-01-29T07:06:29.890Z,2.10
2023-01-29T07:08:57.797Z,1.80
2023-01-29T07:11:25.598Z,2.10
2023-01-29T07:13:53.319Z,2.55
2023-01-29T07:16:21.055Z,2.30
2023-01-29T07:18:49.026Z,2.22
2023-01-29T07:21:16.669Z,2.38
2023-01-29T07:23:44.569Z,2.30
2023-01-29T07:26:12.591Z,2.40
2023-01-29T07:28:41.089Z,2.20
2023-01-29T07:31:09.423Z,2.20
2023-01-29T07:33:37.158Z,2.25
2023-01-29T07:36:11.640Z,2.25
2023-01-29T07:38:39.444Z,2.10
2023-01-29T07:41:07.498Z,2.00
2023-01-29T07:43:35.227Z,2.38
2023-01-29T07:46:05.411Z,2.20
2023-01-29T07:48:33.392Z,2.40
2023-01-29T07:51:01.374Z,2.00
2023-01-29T07:53:29.343Z,2.38
2023-01-29T07:55:57.248Z,2.05
2023-01-29T07:58:24.943Z,2.30
2023-01-29T08:00:52.826Z,2.33
2023-01-29T08:03:20.978Z,2.22
2023-01-29T08:05:49.101Z,2.10
2023-01-29T08:08:17.251Z,1.90
2023-01-29T08:10:45.390Z,2.50
2023-01-29T08:13:13.519Z,2.53
2023-01-29T08:15:46.004Z,2.28
2023-01-29T08:18:14.853Z,2.80
2023-01-29T08:20:43.125Z,2.67
2023-01-29T08:23:15.245Z,2.25
2023-01-29T08:28:11.970Z,2.20
2023-01-29T08:30:39.755Z,2.10
2023-01-29T08:33:07.537Z,2.10
2023-01-29T08:35:35.613Z,2.63
2023-01-29T08:38:05.151Z,2.30
2023-01-29T08:40:34.593Z,2.40
2023-01-29T08:43:06.294Z,2.30
2023-01-29T08:45:37.566Z,2.58
2023-01-29T08:48:06.046Z,2.13
2023-01-29T08:50:35.157Z,2.58
2023-01-29T08:53:07.811Z,2.70
2023-01-29T08:55:40.038Z,2.90
2023-01-29T09:00:35.834Z,3.22
2023-01-29T09:03:04.031Z,2.92
2023-01-29T09:05:31.764Z,2.60
2023-01-29T09:07:59.530Z,2.70
2023-01-29T09:10:27.406Z,2.83
2023-01-29T09:12:55.086Z,3.08
2023-01-29T09:15:23.221Z,3.03
2023-01-29T09:17:51.047Z,2.80
2023-01-29T09:20:19.876Z,3.15
2023-01-29T09:22:48.135Z,2.65
2023-01-29T09:25:16.015Z,3.15
2023-01-29T09:27:43.824Z,2.75
2023-01-29T09:30:12.122Z,3.17
2023-01-29T09:32:55.409Z,2.90
2023-01-29T09:35:23.677Z,3.35
2023-01-29T09:37:51.856Z,3.20
2023-01-29T09:40:22.612Z,3.33
2023-01-29T09:42:55.444Z,3.45
2023-01-29T09:45:25.459Z,3.47
2023-01-29T09:47:54.141Z,3.70
2023-01-29T09:50:40.308Z,3.38
2023-01-29T09:53:19.120Z,3.20
2023-01-29T09:55:51.074Z,3.33
2023-01-29T09:58:24.423Z,3.33
2023-01-29T10:01:02.081Z,3.20
2023-01-29T10:03:48.475Z,3.40
2023-01-29T10:06:23.957Z,3.63
2023-01-29T10:09:22.889Z,3.30
2023-01-29T10:12:16.727Z,3.58
2023-01-29T10:15:19.997Z,3.38
2023-01-29T10:18:01.359Z,3.20
2023-01-29T10:20:55.601Z,3.50
2023-01-29T10:23:35.928Z,4.00
2023-01-29T10:26:03.804Z,3.60
2023-01-29T10:28:37.571Z,3.83
2023-01-29T10:31:11.929Z,3.55
2023-01-29T10:34:11.782Z,3.95
2023-01-29T10:36:46.132Z,3.70
2023-01-29T10:39:18.912Z,3.70
2023-01-29T10:42:07.028Z,3.95
2023-01-29T10:44:53.154Z,3.92
2023-01-29T10:47:52.808Z,4.10
2023-01-29T10:50:44.490Z,4.50
2023-01-29T10:53:40.216Z,4.00
2023-01-29T10:56:23.132Z,4.10
2023-01-29T10:58:57.213Z,4.00
2023-01-29T11:01:26.938Z,4.32
2023-01-29T11:04:07.021Z,4.18
2023-01-29T11:06:36.386Z,4.85
2023-01-29T11:09:19.342Z,4.10
2023-01-29T11:11:50.848Z,4.35
2023-01-29T11:14:31.628Z,4.38
2023-01-29T11:16:59.480Z,4.25
2023-01-29T11:19:41.705Z,4.53
2023-01-29T11:22:13.980Z,4.88
2023-01-29T11:27:26.098Z,4.60
2023-01-29T11:29:54.403Z,4.53
2023-01-29T11:32:22.116Z,4.90
2023-01-29T11:35:08.128Z,5.25
2023-01-29T11:37:38.169Z,5.28
2023-01-29T11:40:24.331Z,6.07
2023-01-29T11:42:53.883Z,5.40
2023-01-29T11:45:30.093Z,5.25
2023-01-29T11:47:58.891Z,5.18
2023-01-29T11:50:29.772Z,5.43
2023-01-29T11:52:59.961Z,6.05
2023-01-29T11:55:48.111Z,5.88
2023-01-29T11:58:26.796Z,5.70
2023-01-29T12:00:55.824Z,5.95
2023-01-29T12:03:33.643Z,5.65
2023-01-29T12:06:08.725Z,5.35
2023-01-29T12:08:38.603Z,5.50
2023-01-29T12:11:09.367Z,5.93
2023-01-29T12:13:37.197Z,5.95
2023-01-29T12:16:11.099Z,5.78
2023-01-29T12:18:42.893Z,5.88
2023-01-29T12:21:45.989Z,5.35
2023-01-29T12:24:38.380Z,5.85
2023-01-29T12:27:21.512Z,5.78
2023-01-29T12:30:06.501Z,5.78
2023-01-29T12:32:43.042Z,5.50
2023-01-29T12:35:13.062Z,5.93
2023-01-29T12:37:58.475Z,5.95
2023-01-29T12:40:35.293Z,5.70
2023-01-29T12:43:11.267Z,5.80
2023-01-29T12:45:39.673Z,5.45
2023-01-29T12:48:11.922Z,5.65
2023-01-29T12:53:16.320Z,5.70
2023-01-29T12:55:48.102Z,5.50
2023-01-29T12:58:18.195Z,5.55
2023-01-29T13:00:47.301Z,5.53
2023-01-29T13:03:21.223Z,6.00
2023-01-29T13:05:58.278Z,5.72
2023-01-29T13:08:28.851Z,5.25
2023-01-29T13:10:59.016Z,6.03
2023-01-29T13:13:36.459Z,5.22
2023-01-29T13:16:06.720Z,5.25
2023-01-29T13:19:03.668Z,4.88
2023-01-29T13:21:35.931Z,5.15
2023-01-29T13:24:25.737Z,5.43
2023-01-29T13:26:53.910Z,5.15
2023-01-29T13:29:31.581Z,4.95
2023-01-29T13:32:05.007Z,5.57
2023-01-29T13:34:45.413Z,5.50
2023-01-29T13:37:28.387Z,5.50
2023-01-29T13:39:57.582Z,5.07
2023-01-29T13:42:44.891Z,5.38
2023-01-29T13:45:45.098Z,5.07
2023-01-29T13:48:23.883Z,4.55
2023-01-29T13:50:51.870Z,5.30
2023-01-29T13:53:29.717Z,5.40
2023-01-29T13:56:35.609Z,4.85
2023-01-29T13:59:05.681Z,4.95
2023-01-29T14:02:04.144Z,5.65
2023-01-29T14:04:33.427Z,5.22
2023-01-29T14:07:06.673Z,5.15
2023-01-29T14:10:14.088Z,4.70
2023-01-29T14:12:42.771Z,5.10
2023-01-29T14:15:29.616Z,4.72
2023-01-29T14:18:06.744Z,5.40
2023-01-29T14:20:48.809Z,4.93
2023-01-29T14:23:41.644Z,4.85
2023-01-29T14:26:29.790Z,4.90
2023-01-29T14:29:14.560Z,4.68
2023-01-29T14:31:50.380Z,5.05
2023-01-29T14:34:21.169Z,4.70
2023-01-29T14:36:55.445Z,4.78
2023-01-29T14:39:36.028Z,5.45
2023-01-29T14:42:15.125Z,5.30
2023-01-29T14:44:45.963Z,4.90
2023-01-29T14:47:32.878Z,4.93
2023-01-29T14:50:03.332Z,5.53
2023-01-29T14:52:39.060Z,5.10
2023-01-29T14:55:31.966Z,4.90
2023-01-29T14:57:59.786Z,4.95
2023-01-29T15:00:30.087Z,4.93
2023-01-29T15:03:02.023Z,5.03
2023-01-29T15:08:05.097Z,4.43
2023-01-29T15:10:44.510Z,5.22
2023-01-29T15:13:42.348Z,5.13
2023-01-29T15:16:16.473Z,5.00
2023-01-29T15:18:44.639Z,4.72
2023-01-29T15:21:17.407Z,5.40
2023-01-29T15:23:48.010Z,5.15
2023-01-29T15:26:21.027Z,4.90
2023-01-29T15:29:22.216Z,5.30
2023-01-29T15:31:50.107Z,5.40
2023-01-29T15:34:17.907Z,5.53
2023-01-29T15:36:47.990Z,5.75
2023-01-29T15:39:21.773Z,8.65
2023-01-29T15:41:51.909Z,8.93
2023-01-29T15:44:23.099Z,10.27
2023-01-29T15:46:53.604Z,8.38
2023-01-29T15:49:30.732Z,8.43
2023-01-29T15:52:00.915Z,8.48
2023-01-29T15:54:31.727Z,7.85
2023-01-29T15:56:59.706Z,7.63
2023-01-29T15:59:31.191Z,7.60
2023-01-29T16:01:58.920Z,7.23
2023-01-29T16:04:29.181Z,6.60
2023-01-29T16:06:58.785Z,6.93
2023-01-29T16:09:27.736Z,7.75
2023-01-29T16:11:58.278Z,6.78
2023-01-29T16:14:27.086Z,7.28
2023-01-29T16:16:54.971Z,7.22
2023-01-29T16:19:29.802Z,6.53
2023-01-29T16:22:03.261Z,6.68
2023-01-29T16:24:32.424Z,6.72
2023-01-29T16:27:02.599Z,7.53
2023-01-29T16:29:32.224Z,6.75
2023-01-29T16:32:02.610Z,6.22
2023-01-29T16:34:42.375Z,6.93
2023-01-29T16:37:20.413Z,6.05
2023-01-29T16:39:50.417Z,6.13
2023-01-29T16:42:20.963Z,6.93
2023-01-29T16:44:53.669Z,6.72
2023-01-29T16:47:37.011Z,6.90
2023-01-29T16:50:54.702Z,6.82
2023-01-29T16:53:27.506Z,6.72
2023-01-29T16:56:04.718Z,6.72
2023-01-29T16:58:36.154Z,6.35
2023-01-29T17:01:12.598Z,6.40
2023-01-29T17:03:43.266Z,6.50
2023-01-29T17:06:25.726Z,6.82
2023-01-29T17:08:54.112Z,6.47
2023-01-29T17:11:35.026Z,6.45
2023-01-29T17:14:03.387Z,6.07
2023-01-29T17:16:34.056Z,6.03
2023-01-29T17:19:02.308Z,5.85
2023-01-29T17:21:30.838Z,6.15
2023-01-29T17:23:58.745Z,6.03
2023-01-29T17:26:26.659Z,6.20
2023-01-29T17:28:55.172Z,5.70
2023-01-29T17:31:23.094Z,5.90
2023-01-29T17:33:50.989Z,5.35
2023-01-29T17:36:19.175Z,6.10
2023-01-29T17:38:47.256Z,5.43
2023-01-29T17:41:25.116Z,5.72
2023-01-29T17:43:53.023Z,5.43
2023-01-29T17:46:21.198Z,6.25
2023-01-29T17:48:52.630Z,6.30
2023-01-29T17:51:20.235Z,5.53
2023-01-29T17:53:47.878Z,5.63
2023-01-29T17:56:17.496Z,5.57
2023-01-29T17:58:45.507Z,5.30
2023-01-29T18:01:13.216Z,5.97
2023-01-29T18:03:41.079Z,5.50
2023-01-29T18:06:09.713Z,6.07
2023-01-29T18:08:38.670Z,5.70
2023-01-29T18:11:06.552Z,5.53
2023-01-29T18:13:36.466Z,5.75
2023-01-29T18:16:04.602Z,5.90
2023-01-29T18:18:32.305Z,5.60
2023-01-29T18:20:59.995Z,5.53
2023-01-29T18:23:29.966Z,6.20
2023-01-29T18:25:58.015Z,5.85
2023-01-29T18:28:26.157Z,5.72
2023-01-29T18:30:53.971Z,5.43
2023-01-29T18:33:22.752Z,5.30
2023-01-29T18:35:50.599Z,5.50
2023-01-29T18:38:18.257Z,5.03
2023-01-29T18:40:46.090Z,5.43
2023-01-29T18:43:14.721Z,5.35
2023-01-29T18:45:42.634Z,5.20
2023-01-29T18:48:10.392Z,5.57
2023-01-29T18:50:38.290Z,4.70
2023-01-29T18:53:06.022Z,5.22
2023-01-29T18:55:33.989Z,5.45
2023-01-29T18:58:27.203Z,5.22
2023-01-29T19:00:49.634Z,5.47
2023-01-29T19:03:17.558Z,5.20
2023-01-29T19:05:45.427Z,5.30
2023-01-29T19:08:13.292Z,5.32
2023-01-29T19:10:41.048Z,5.57
2023-01-29T19:13:08.991Z,5.57
2023-01-29T19:15:36.701Z,5.40
2023-01-29T19:18:04.483Z,5.60
2023-01-29T19:20:32.271Z,5.20
2023-01-29T19:23:00.117Z,5.65
2023-01-29T19:25:27.941Z,5.68
2023-01-29T19:27:55.918Z,5.10
2023-01-29T19:30:24.165Z,5.15
2023-01-29T19:32:52.080Z,4.82
